Time;durP1;ratioP1;P1;durP2;ratioP2;P2;SDS_P1;SDS_P2;PMS_P1;PMS_P2;Temp;Humidity;BMP_temperature;BMP_pressure;BME280_temperature;BME280_humidity;BME280_pressure;Samples;Min_cycle;Max_cycle;Signal;HPM_P1;HPM_P2
2022/12/20 00:01:00;;;;;;;4.78;3.70;;;;;;;21.42;43.21;96693.78;5003510;28;20050;-62
2022/12/20 00:03:25;;;;;;;4.70;3.60;;;;;;;21.38;43.29;96693.16;4985804;28;20042;-63
2022/12/20 00:05:51;;;;;;;4.72;3.40;;;;;;;21.29;43.24;96673.41;4988824;28;20042;-62
2022/12/20 00:08:16;;;;;;;4.28;3.30;;;;;;;21.40;43.15;96701.59;5005122;28;20930;-61
2022/12/20 00:10:43;;;;;;;4.72;3.30;;;;;;;21.50;43.30;96714.00;5003126;28;20046;-62
2022/12/20 00:13:08;;;;;;;4.75;3.80;;;;;;;20.87;43.08;96636.50;4986640;28;20458;-62
2022/12/20 00:15:34;;;;;;;5.68;3.60;;;;;;;21.50;43.33;96711.28;4982016;28;20042;-61
2022/12/20 00:18:00;;;;;;;4.45;3.33;;;;;;;21.50;43.11;96717.47;4969183;28;20073;-62
2022/12/20 00:20:26;;;;;;;5.10;3.30;;;;;;;20.10;43.22;96509.53;4997150;28;20433;-63
2022/12/20 00:22:51;;;;;;;5.18;3.80;;;;;;;21.29;43.28;96703.31;4985322;28;20405;-62
2022/12/20 00:25:17;;;;;;;5.53;3.67;;;;;;;21.40;43.30;96723.34;4984552;28;20043;-62
2022/12/20 00:27:43;;;;;;;4.93;3.58;;;;;;;21.31;43.00;96715.19;4985794;28;20073;-62
2022/12/20 00:30:08;;;;;;;5.30;3.65;;;;;;;21.32;43.30;96708.56;4977698;28;20518;-62
2022/12/20 00:32:34;;;;;;;5.38;3.45;;;;;;;21.26;43.25;96696.06;4998168;28;20529;-62
2022/12/20 00:34:59;;;;;;;5.03;3.65;;;;;;;21.36;43.46;96722.78;4991864;28;20042;-61
2022/12/20 00:37:25;;;;;;;5.47;3.45;;;;;;;21.36;43.19;96719.28;5004635;28;20112;-61
2022/12/20 00:39:50;;;;;;;5.93;3.60;;;;;;;21.32;43.29;96711.28;4992777;28;20460;-62
2022/12/20 00:42:16;;;;;;;4.63;3.45;;;;;;;21.33;43.38;96722.91;4999574;28;20050;-61
2022/12/20 00:44:41;;;;;;;5.90;3.67;;;;;;;21.23;43.13;96696.97;4993582;28;20030;-62
2022/12/20 00:47:06;;;;;;;5.47;3.70;;;;;;;21.19;43.36;96691.66;4964774;28;20045;-62
2022/12/20 00:49:32;;;;;;;5.00;3.45;;;;;;;20.51;43.26;96599.22;4988931;28;20053;-61
2022/12/20 00:51:57;;;;;;;4.95;3.58;;;;;;;21.26;43.16;96707.66;4974016;28;20437;-61
2022/12/20 00:54:23;;;;;;;5.18;3.35;;;;;;;21.10;43.34;96682.78;4984288;28;20046;-61
2022/12/20 00:56:48;;;;;;;4.85;3.50;;;;;;;21.29;43.40;96709.47;4985079;28;20046;-62
2022/12/20 00:59:14;;;;;;;5.22;3.80;;;;;;;21.26;43.43;96704.97;4986948;28;20502;-62
2022/12/20 01:01:39;;;;;;;4.90;3.35;;;;;;;20.40;43.17;96576.44;4987142;28;20093;-62
2022/12/20 01:04:05;;;;;;;4.82;3.50;;;;;;;21.29;43.32;96717.63;5005214;28;20045;-61
2022/12/20 01:06:30;;;;;;;5.15;3.50;;;;;;;21.26;43.22;96709.66;4990914;28;20043;-62
2022/12/20 01:08:56;;;;;;;4.93;3.58;;;;;;;21.28;43.55;96721.53;4968655;28;20507;-61
2022/12/20 01:11:31;;;;;;;5.38;3.70;;;;;;;21.27;43.30;96714.63;4989562;28;20034;-61
2022/12/20 01:13:58;;;;;;;4.80;3.30;;;;;;;21.19;43.12;96705.25;4997373;28;20046;-62
2022/12/20 01:16:24;;;;;;;5.25;3.35;;;;;;;20.60;43.19;96601.91;4985186;28;20054;-62
2022/12/20 01:18:50;;;;;;;5.80;4.00;;;;;;;21.21;43.18;96700.13;4983976;28;20086;-61
2022/12/20 01:21:16;;;;;;;4.95;3.42;;;;;;;21.23;43.39;96703.16;5002111;28;20046;-62
2022/12/20 01:23:42;;;;;;;4.90;3.83;;;;;;;21.22;43.32;96717.94;4973764;28;20310;-61
2022/12/20 01:26:10;;;;;;;4.90;3.65;;;;;;;21.03;43.53;96675.69;4987457;28;20441;-62
2022/12/20 01:28:36;;;;;;;4.63;3.30;;;;;;;21.16;43.31;96684.44;4956612;28;20042;-62
2022/12/20 01:31:01;;;;;;;4.78;3.58;;;;;;;21.19;43.25;96707.97;4991258;28;20532;-62
2022/12/20 01:33:26;;;;;;;4.45;3.38;;;;;;;21.22;43.18;96679.91;4989794;28;20054;-61
2022/12/20 01:36:03;;;;;;;4.75;3.55;;;;;;;21.18;43.25;96679.31;4992884;28;20057;-61
2022/12/20 01:38:29;;;;;;;4.22;3.28;;;;;;;20.89;43.45;96636.78;5004826;28;20026;-62
2022/12/20 01:40:56;;;;;;;5.68;3.35;;;;;;;21.16;43.32;96681.72;4970252;28;20065;-62
2022/12/20 01:43:21;;;;;;;5.85;3.97;;;;;;;21.20;43.27;96714.91;5004533;28;20095;-61
2022/12/20 01:45:47;;;;;;;4.43;3.33;;;;;;;19.78;43.03;96465.19;5000188;28;20046;-62
2022/12/20 01:48:17;;;;;;;4.22;2.92;;;;;;;21.15;43.20;96674.00;4994844;28;20421;-61
2022/12/20 01:50:44;;;;;;;4.65;3.13;;;;;;;21.01;43.48;96642.03;4974237;28;20495;-61
2022/12/20 01:53:09;;;;;;;5.20;3.50;;;;;;;20.25;43.21;96526.72;4984555;28;20074;-62
2022/12/20 01:55:35;;;;;;;4.05;3.13;;;;;;;20.97;43.16;96647.63;4986665;28;20117;-62
2022/12/20 01:58:02;;;;;;;5.85;3.60;;;;;;;21.11;43.23;96666.03;4990727;28;20045;-61
2022/12/20 02:00:28;;;;;;;5.22;3.28;;;;;;;21.13;43.23;96663.59;4987915;28;20208;-64
2022/12/20 02:02:53;;;;;;;4.20;3.17;;;;;;;21.09;43.43;96649.44;4975477;28;20027;-61
2022/12/20 02:05:20;;;;;;;5.10;3.50;;;;;;;21.04;43.26;96652.75;4984278;28;20030;-62
2022/12/20 02:07:47;;;;;;;4.03;3.28;;;;;;;21.03;43.19;96645.06;4967077;28;20128;-62
2022/12/20 02:10:12;;;;;;;4.65;3.25;;;;;;;20.25;43.08;96531.38;4996780;28;20042;-64
2022/12/20 02:12:42;;;;;;;4.50;3.38;;;;;;;20.83;43.31;96625.75;4991222;28;20112;-61
2022/12/20 02:15:26;;;;;;;5.50;3.63;;;;;;;21.06;43.28;96653.06;4984502;28;20046;-61
2022/12/20 02:18:13;;;;;;;5.35;3.38;;;;;;;21.06;43.28;96650.34;4993765;28;20154;-64
2022/12/20 02:20:58;;;;;;;4.20;3.10;;;;;;;20.85;43.37;96622.59;4995032;28;20141;-63
2022/12/20 02:23:48;;;;;;;4.80;3.42;;;;;;;21.07;43.29;96662.69;5000229;28;20570;-61
2022/12/20 02:26:19;;;;;;;4.63;3.50;;;;;;;21.08;43.29;96664.22;4966517;28;20062;-62
2022/12/20 02:29:09;;;;;;;5.15;3.10;;;;;;;21.06;43.13;96682.94;4997084;28;20530;-62
2022/12/20 02:31:41;;;;;;;4.97;3.70;;;;;;;20.99;43.11;96645.22;5000341;28;20041;-61
2022/12/20 02:34:07;;;;;;;4.72;3.13;;;;;;;21.02;43.18;96666.03;4967037;28;20125;-62
2022/12/20 02:36:33;;;;;;;5.22;3.60;;;;;;;21.02;42.97;96660.59;4969246;28;20486;-61
2022/12/20 02:38:58;;;;;;;4.60;3.08;;;;;;;20.28;43.22;96558.34;5003382;28;20097;-61
2022/12/20 02:41:26;;;;;;;4.50;3.28;;;;;;;21.00;43.40;96652.16;4975915;28;20030;-61
2022/12/20 02:46:39;;;;;;;5.05;3.47;;;;;;;20.81;43.23;96622.00;4978687;28;20077;-61
2022/12/20 02:49:10;;;;;;;4.75;3.38;;;;;;;20.96;43.14;96656.97;4983991;28;20437;-62
2022/12/20 02:51:35;;;;;;;4.40;3.15;;;;;;;21.00;43.34;96635.88;5000065;28;20041;-62
2022/12/20 02:54:01;;;;;;;4.85;3.30;;;;;;;20.99;43.27;96650.66;4968122;28;20505;-61
2022/12/20 02:56:34;;;;;;;4.25;3.10;;;;;;;21.00;43.17;96646.72;4967304;28;20041;-61
2022/12/20 02:59:26;;;;;;;4.35;3.10;;;;;;;20.99;43.18;96644.47;4990951;28;20454;-61
2022/12/20 03:01:53;;;;;;;4.70;3.40;;;;;;;20.98;43.18;96649.16;4988787;28;20455;-62
2022/12/20 03:04:21;;;;;;;5.28;3.42;;;;;;;20.99;43.52;96645.22;4994008;28;20229;-62
2022/12/20 03:07:01;;;;;;;4.38;3.30;;;;;;;20.99;43.06;96650.66;4974840;28;20125;-62
2022/12/20 03:09:27;;;;;;;4.70;3.10;;;;;;;20.97;43.20;96641.47;4986184;28;20152;-62
2022/12/20 03:11:53;;;;;;;5.63;3.70;;;;;;;20.85;43.14;96611.72;4980845;28;20848;-62
2022/12/20 03:14:18;;;;;;;5.18;3.60;;;;;;;20.39;42.98;96547.03;4992897;28;20108;-64
2022/12/20 03:16:44;;;;;;;4.70;2.92;;;;;;;20.72;43.14;96597.59;4967596;28;20042;-61
2022/12/20 03:19:09;;;;;;;4.90;3.25;;;;;;;20.96;42.81;96624.41;4969369;28;20054;-61
2022/12/20 03:21:35;;;;;;;5.03;3.47;;;;;;;20.31;42.96;96533.03;4987775;28;20049;-62
2022/12/20 03:24:00;;;;;;;4.97;3.45;;;;;;;20.94;43.02;96628.03;4987851;28;20034;-61
2022/12/20 03:26:25;;;;;;;4.60;3.25;;;;;;;20.96;42.92;96628.34;4985379;28;20562;-61
2022/12/20 03:28:51;;;;;;;4.75;3.40;;;;;;;20.97;43.09;96631.34;4986994;28;20503;-62
2022/12/20 03:31:17;;;;;;;4.30;2.80;;;;;;;20.77;42.93;96605.13;4990015;28;20043;-61
2022/12/20 03:33:42;;;;;;;4.32;2.97;;;;;;;20.95;43.07;96626.81;5006118;28;20045;-62
2022/12/20 03:36:08;;;;;;;4.57;3.40;;;;;;;20.89;43.12;96623.22;5000418;28;20519;-61
2022/12/20 03:38:33;;;;;;;5.07;3.55;;;;;;;20.67;43.16;96587.28;5005146;28;20030;-62
2022/12/20 03:40:58;;;;;;;4.47;3.30;;;;;;;20.72;43.00;96597.59;4996859;28;20046;-61
2022/12/20 03:43:24;;;;;;;4.57;2.92;;;;;;;20.90;43.18;96632.88;4996602;28;20061;-61
2022/12/20 03:45:50;;;;;;;4.65;3.42;;;;;;;19.95;42.56;96480.00;4969354;28;20489;-62
2022/12/20 03:48:15;;;;;;;4.53;3.20;;;;;;;20.91;43.14;96626.22;4997205;28;20489;-61
2022/12/20 03:50:40;;;;;;;4.90;3.33;;;;;;;20.93;42.80;96623.81;4994307;28;20034;-62
2022/12/20 03:53:06;;;;;;;4.50;3.17;;;;;;;20.66;43.05;96591.22;4997304;28;20398;-61
2022/12/20 03:55:31;;;;;;;4.60;3.17;;;;;;;20.00;42.84;96494.44;4989460;28;20092;-62
2022/12/20 03:57:57;;;;;;;4.65;3.13;;;;;;;20.75;43.20;96618.41;4995176;28;20069;-63
2022/12/20 04:00:22;;;;;;;4.80;3.50;;;;;;;20.86;43.01;96629.53;4997851;28;20052;-62
2022/12/20 04:02:48;;;;;;;4.97;3.20;;;;;;;20.88;42.95;96621.69;4989653;28;20541;-62
2022/12/20 04:05:15;;;;;;;5.03;3.45;;;;;;;20.89;43.06;96620.50;4993117;28;20498;-62
2022/12/20 04:07:41;;;;;;;4.07;3.00;;;;;;;20.87;42.97;96626.38;5002142;28;20148;-60
2022/12/20 04:10:07;;;;;;;4.72;3.30;;;;;;;20.87;43.13;96625.63;5004798;28;20077;-62
2022/12/20 04:12:32;;;;;;;4.38;3.30;;;;;;;20.61;42.87;96608.09;5005876;28;20160;-62
2022/12/20 04:14:57;;;;;;;4.32;3.25;;;;;;;20.84;42.89;96619.13;4999633;28;20402;-61
2022/12/20 04:17:23;;;;;;;5.05;3.22;;;;;;;20.42;43.02;96559.69;5004209;28;20468;-62
2022/12/20 04:19:48;;;;;;;5.00;3.42;;;;;;;20.84;42.99;96621.09;4995281;28;20046;-63
2022/12/20 04:22:14;;;;;;;4.95;3.08;;;;;;;20.75;43.08;96618.41;5002516;28;20597;-64
2022/12/20 04:24:39;;;;;;;4.07;2.80;;;;;;;20.84;43.00;96615.69;4995328;28;20053;-62
2022/12/20 04:27:04;;;;;;;4.90;3.38;;;;;;;20.84;43.00;96618.41;4974428;28;20050;-62
2022/12/20 04:29:30;;;;;;;4.50;3.20;;;;;;;20.83;42.88;96616.88;5005516;28;20034;-62
2022/12/20 04:31:56;;;;;;;4.88;3.00;;;;;;;20.66;42.80;96593.94;4979904;28;20054;-61
2022/12/20 04:34:21;;;;;;;4.10;3.10;;;;;;;20.81;42.97;96617.31;4996359;28;20038;-61
2022/12/20 04:36:46;;;;;;;4.97;3.63;;;;;;;20.65;42.81;96576.13;5004259;28;20493;-63
2022/12/20 04:39:12;;;;;;;4.70;3.25;;;;;;;20.54;43.02;96581.28;5002099;28;20474;-61
2022/12/20 04:41:37;;;;;;;4.07;2.95;;;;;;;20.12;42.68;96507.13;4981110;28;20494;-61
2022/12/20 04:44:03;;;;;;;4.57;3.15;;;;;;;20.38;42.86;96557.16;5002751;28;20057;-61
2022/12/20 04:46:28;;;;;;;4.20;3.30;;;;;;;20.80;42.89;96609.63;4989530;28;20052;-61
2022/12/20 04:48:54;;;;;;;5.07;3.00;;;;;;;20.80;43.07;96609.63;4988317;28;20046;-62
2022/12/20 04:51:19;;;;;;;5.47;3.72;;;;;;;20.72;42.98;96594.88;4992989;28;20105;-62
2022/12/20 04:53:47;;;;;;;4.38;3.10;;;;;;;20.79;42.56;96603.47;4988542;28;20054;-64
2022/12/20 04:56:17;;;;;;;6.20;3.53;;;;;;;20.76;42.84;96600.88;4995844;28;20072;-63
2022/12/20 04:58:43;;;;;;;4.38;3.05;;;;;;;20.77;42.82;96605.84;4981287;28;20062;-62
2022/12/20 05:01:08;;;;;;;4.65;3.13;;;;;;;20.76;42.82;96600.88;4971055;28;20074;-62
2022/12/20 05:03:34;;;;;;;4.53;2.80;;;;;;;20.72;42.82;96597.59;4987369;28;20548;-61
2022/12/20 05:05:59;;;;;;;5.03;3.30;;;;;;;20.56;42.91;96568.00;4994162;28;20514;-62
2022/12/20 05:08:25;;;;;;;4.47;3.05;;;;;;;20.17;42.66;96503.78;4992681;28;20034;-62
2022/12/20 05:10:50;;;;;;;4.82;3.30;;;;;;;20.76;42.68;96619.88;4997025;28;20046;-61
2022/12/20 05:13:15;;;;;;;4.43;3.33;;;;;;;20.23;42.89;96523.69;4997813;28;20042;-62
2022/12/20 05:15:41;;;;;;;4.35;3.08;;;;;;;20.74;42.81;96597.88;5003598;28;20092;-60
2022/12/20 05:18:07;;;;;;;4.30;2.95;;;;;;;20.77;42.80;96599.69;4998437;28;20073;-63
2022/12/20 05:20:32;;;;;;;4.72;3.58;;;;;;;20.14;42.56;96501.97;4980182;28;20100;-61
2022/12/20 05:26:16;;;;;;;4.97;3.55;;;;;;;20.72;42.73;96620.03;4994155;28;20073;-61
2022/12/20 05:28:33;;;;;;;4.22;3.08;;;;;;;20.80;43.24;96604.22;4974637;28;20050;-61
2022/12/20 05:30:59;;;;;;;3.90;2.95;;;;;;;20.74;42.67;96609.47;4988605;28;20116;-61
2022/12/20 05:33:25;;;;;;;4.82;3.15;;;;;;;20.91;42.52;96578.13;4972533;28;20053;-61
2022/12/20 05:35:50;;;;;;;4.65;3.22;;;;;;;20.73;42.83;96561.84;4996182;28;20041;-62
2022/12/20 05:38:16;;;;;;;4.30;3.20;;;;;;;21.18;42.84;96611.41;5018895;28;20038;-62
2022/12/20 05:40:41;;;;;;;5.30;3.45;;;;;;;21.23;42.93;96599.91;5002031;28;20494;-62
2022/12/20 05:43:07;;;;;;;5.20;3.35;;;;;;;20.92;42.72;96546.28;4979560;28;20050;-61
2022/12/20 05:45:32;;;;;;;4.68;3.03;;;;;;;;;;4996266;28;20053;-62
2022/12/20 05:47:58;;;;;;;4.63;3.10;;;;;;;21.34;42.74;96616.47;4996847;28;20114;-62
2022/12/20 05:50:23;;;;;;;4.60;3.17;;;;;;;20.61;42.79;96504.97;4990374;28;20072;-61
2022/12/20 05:52:48;;;;;;;4.57;3.30;;;;;;;20.74;42.57;96502.88;4951454;28;20054;-62
2022/12/20 05:55:14;;;;;;;5.57;3.20;;;;;;;21.47;42.50;96614.38;4979819;28;20050;-63
2022/12/20 05:57:39;;;;;;;4.15;2.83;;;;;;;21.51;42.41;96620.41;4984597;28;20062;-62
2022/12/20 06:00:05;;;;;;;3.97;2.92;;;;;;;21.29;42.20;96581.78;4981204;28;20480;-63
2022/12/20 06:02:31;;;;;;;4.93;3.13;;;;;;;20.71;42.11;96498.34;4996552;28;20030;-63
2022/12/20 06:04:57;;;;;;;8.48;4.25;;;;;;;20.73;41.53;96593.66;4995914;28;20045;-61
2022/12/20 06:07:23;;;;;;;7.63;3.47;;;;;;;20.97;41.62;96615.06;5003166;28;20622;-61
2022/12/20 06:09:49;;;;;;;7.18;3.20;;;;;;;21.47;41.61;96619.81;4991941;28;20110;-62
2022/12/20 06:12:14;;;;;;;4.80;3.38;;;;;;;21.61;41.66;96608.28;5003929;28;20764;-61
2022/12/20 06:14:39;;;;;;;5.25;3.30;;;;;;;21.46;41.51;96580.25;4974373;28;20034;-62
2022/12/20 06:17:05;;;;;;;6.20;3.35;;;;;;;21.07;40.44;96526.91;4986364;28;20514;-62
2022/12/20 06:19:30;;;;;;;6.15;3.70;;;;;;;21.76;40.64;96614.56;4971418;28;20046;-61
2022/12/20 06:21:56;;;;;;;5.30;3.45;;;;;;;21.23;40.86;96545.56;4995247;28;20042;-62
2022/12/20 06:24:24;;;;;;;7.20;3.30;;;;;;;20.96;41.31;96504.91;4983546;28;20038;-61
2022/12/20 06:26:50;;;;;;;6.63;3.42;;;;;;;21.78;41.51;96617.56;4983887;28;20066;-63
2022/12/20 06:29:16;;;;;;;5.13;3.15;;;;;;;21.83;41.69;96614.22;4982730;28;20133;-62
2022/12/20 06:31:42;;;;;;;4.22;3.00;;;;;;;21.93;41.39;96622.63;4992743;28;20519;-61
2022/12/20 06:34:08;;;;;;;6.07;3.35;;;;;;;22.00;41.58;96616.88;4972201;28;20049;-63
2022/12/20 06:36:33;;;;;;;4.50;3.00;;;;;;;22.01;41.41;96636.66;4998626;28;20045;-65
2022/12/20 06:38:58;;;;;;;4.05;2.90;;;;;;;22.02;41.55;96621.84;4996552;28;20100;-63
2022/12/20 06:41:24;;;;;;;5.95;3.25;;;;;;;21.87;41.48;96593.03;4984377;28;20051;-64
2022/12/20 06:43:49;;;;;;;4.85;2.95;;;;;;;21.99;42.00;96634.38;4968160;28;20085;-64
2022/12/20 06:46:15;;;;;;;4.90;3.00;;;;;;;21.51;41.96;96511.69;4990165;28;20431;-63
2022/12/20 06:48:40;;;;;;;6.35;3.25;;;;;;;22.00;42.02;96592.38;4989274;28;20050;-65
2022/12/20 06:51:06;;;;;;;5.22;3.28;;;;;;;21.88;42.00;96559.19;4967220;28;20431;-63
2022/12/20 06:53:31;;;;;;;4.43;3.03;;;;;;;22.05;41.81;96583.56;4994340;28;20038;-67
2022/12/20 06:55:56;;;;;;;5.05;3.10;;;;;;;22.22;41.86;96592.13;4980432;28;20050;-66
2022/12/20 06:58:22;;;;;;;6.88;2.70;;;;;;;22.12;42.05;96571.59;5003982;28;20061;-62
2022/12/20 07:00:48;;;;;;;4.57;3.28;;;;;;;21.95;41.85;96535.88;4992067;28;20046;-63
2022/12/20 07:03:13;;;;;;;3.95;2.90;;;;;;;22.25;41.68;96564.72;4978996;28;20105;-65
2022/12/20 07:05:39;;;;;;;4.75;2.95;;;;;;;21.06;41.47;96383.41;4998134;28;20537;-65
2022/12/20 07:08:04;;;;;;;4.10;2.90;;;;;;;22.41;41.66;96577.94;4994261;28;20451;-63
2022/12/20 07:10:32;;;;;;;4.30;3.15;;;;;;;22.31;41.46;96573.75;5005767;28;20046;-64
2022/12/20 07:12:57;;;;;;;5.03;3.38;;;;;;;22.00;41.21;96494.47;4997451;28;20092;-64
2022/12/20 07:15:22;;;;;;;4.53;3.20;;;;;;;22.14;40.55;96504.63;4960629;28;20434;-63
2022/12/20 07:17:48;;;;;;;9.52;3.80;;;;;;;22.01;40.45;96511.53;4990975;28;20430;-66
2022/12/20 07:20:13;;;;;;;8.45;3.40;;;;;;;22.44;40.64;96563.38;4981389;28;20485;-60
2022/12/20 07:22:39;;;;;;;5.45;3.33;;;;;;;22.58;40.78;96576.28;4980314;28;20502;-64
2022/12/20 07:25:04;;;;;;;6.28;3.53;;;;;;;22.46;40.63;96567.13;4991066;28;20068;-67
2022/12/20 07:27:30;;;;;;;6.63;3.30;;;;;;;22.65;40.50;96584.09;4997485;28;20047;-65
2022/12/20 07:29:55;;;;;;;5.63;3.25;;;;;;;22.72;40.55;96570.09;5001119;28;20030;-63
2022/12/20 07:32:21;;;;;;;4.05;2.95;;;;;;;22.66;40.87;96577.41;4986296;28;20026;-64
2022/12/20 07:34:46;;;;;;;5.32;3.13;;;;;;;21.74;41.06;96459.28;4991954;28;20038;-66
2022/12/20 07:37:12;;;;;;;3.88;2.70;;;;;;;22.40;40.68;96570.97;4996592;28;20133;-67
2022/12/20 07:39:37;;;;;;;4.60;2.85;;;;;;;22.45;41.15;96578.50;4973133;28;20492;-61
2022/12/20 07:42:03;;;;;;;6.38;3.20;;;;;;;22.59;40.65;96580.50;5013667;28;20567;-62
2022/12/20 07:44:29;;;;;;;4.47;2.92;;;;;;;22.76;40.47;96579.59;4982352;28;20034;-63
2022/12/20 07:46:54;;;;;;;6.07;3.45;;;;;;;23.15;39.80;96575.63;5006333;28;20066;-65
2022/12/20 07:49:20;;;;;;;4.95;3.17;;;;;;;23.02;39.59;96573.19;5007773;28;20042;-65
2022/12/20 07:51:50;;;;;;;5.32;2.83;;;;;;;22.88;39.99;96588.72;5014173;28;20566;-67
2022/12/20 07:54:30;;;;;;;4.78;3.30;;;;;;;22.92;40.12;96574.44;4969758;28;20048;-63
2022/12/20 07:57:00;;;;;;;;;;;;;;;22.91;40.25;96572.97;5002418;28;21899;-64
2022/12/20 07:59:33;;;;;;;5.15;3.33;;;;;;;22.92;40.29;96569.00;4992859;28;19948;-62
2022/12/20 08:01:59;;;;;;;4.93;3.15;;;;;;;23.40;39.46;96573.81;4974564;28;20144;-64
2022/12/20 08:04:25;;;;;;;5.00;3.60;;;;;;;23.11;39.53;96526.03;4961186;28;20410;-63
2022/12/20 08:06:51;;;;;;;5.47;3.85;;;;;;;23.47;39.67;96553.63;4998696;28;20117;-64
2022/12/20 08:09:16;;;;;;;5.50;3.47;;;;;;;23.57;39.28;96558.47;4983408;28;20099;-63
2022/12/20 08:11:43;;;;;;;6.00;3.55;;;;;;;23.51;39.43;96559.59;4988163;28;20661;-61
2022/12/20 08:14:09;;;;;;;5.50;3.30;;;;;;;23.21;39.63;96536.31;4949732;28;20086;-67
2022/12/20 08:16:34;;;;;;;5.45;3.65;;;;;;;23.20;39.53;96539.53;4994661;28;20046;-62
2022/12/20 08:19:00;;;;;;;4.43;3.30;;;;;;;23.30;39.43;96549.84;4996438;28;20172;-65
2022/12/20 08:21:25;;;;;;;4.80;2.95;;;;;;;23.61;39.56;96558.28;4972784;28;20080;-63
2022/12/20 08:23:51;;;;;;;5.05;3.30;;;;;;;23.42;39.13;96537.91;5006084;28;20034;-67
2022/12/20 08:26:16;;;;;;;9.05;3.10;;;;;;;23.65;39.34;96539.78;4974400;28;20035;-65
2022/12/20 08:28:42;;;;;;;7.65;3.53;;;;;;;23.76;39.23;96548.88;4986335;28;20053;-67
2022/12/20 08:31:08;;;;;;;4.68;3.10;;;;;;;23.75;39.56;96519.34;5006487;28;20405;-66
2022/12/20 08:33:33;;;;;;;5.97;3.47;;;;;;;23.70;39.74;96545.31;4977777;28;20108;-66
2022/12/20 08:36:01;;;;;;;5.75;3.85;;;;;;;23.86;39.89;96549.50;4961527;28;20426;-70
2022/12/20 08:38:27;;;;;;;4.60;3.40;;;;;;;23.32;39.66;96517.44;4976104;28;20030;-68
2022/12/20 08:40:52;;;;;;;5.28;3.00;;;;;;;24.05;39.36;96541.34;4991327;28;20056;-63
2022/12/20 08:43:18;;;;;;;6.22;3.90;;;;;;;23.96;39.03;96544.19;4980538;28;20043;-63
2022/12/20 08:45:43;;;;;;;6.07;3.10;;;;;;;23.88;39.61;96540.38;4977148;28;20556;-66
2022/12/20 08:48:09;;;;;;;5.28;3.28;;;;;;;23.77;39.48;96536.00;4964361;28;20039;-69
2022/12/20 08:50:35;;;;;;;4.70;3.20;;;;;;;23.39;39.56;96508.84;4974147;28;20030;-65
2022/12/20 08:53:00;;;;;;;5.43;3.10;;;;;;;23.61;39.81;96536.47;4980951;28;20046;-64
2022/12/20 08:55:26;;;;;;;5.07;3.42;;;;;;;23.58;39.66;96537.41;4968056;28;20049;-65
2022/12/20 08:57:51;;;;;;;6.68;3.50;;;;;;;22.96;39.51;96422.50;4993199;28;20051;-67
2022/12/20 09:00:17;;;;;;;5.22;3.40;;;;;;;23.27;38.99;96422.69;4990355;28;20502;-68
2022/12/20 09:02:42;;;;;;;4.65;3.15;;;;;;;23.81;38.86;96525.63;4988245;28;20534;-64
2022/12/20 09:05:08;;;;;;;5.57;3.35;;;;;;;23.87;38.94;96527.94;4985273;28;20089;-62
2022/12/20 09:07:34;;;;;;;7.88;3.60;;;;;;;24.17;38.46;96518.41;4996807;28;20038;-67
2022/12/20 09:09:59;;;;;;;10.65;3.78;;;;;;;24.17;38.41;96534.78;4993474;28;20046;-67
2022/12/20 09:12:25;;;;;;;6.97;3.70;;;;;;;24.28;37.68;96518.53;4983501;28;20066;-66
2022/12/20 09:14:50;;;;;;;5.60;3.60;;;;;;;24.35;37.89;96518.16;4993056;28;20030;-65
2022/12/20 09:17:15;;;;;;;9.02;3.35;;;;;;;24.41;37.67;96516.25;4962346;28;20092;-66
2022/12/20 09:19:41;;;;;;;7.82;3.75;;;;;;;23.92;37.84;96467.25;4992402;28;20505;-66
2022/12/20 09:22:07;;;;;;;5.40;3.50;;;;;;;24.03;37.83;96497.38;4953525;28;20050;-65
2022/12/20 09:24:32;;;;;;;6.93;3.47;;;;;;;23.45;38.50;96392.44;4983845;28;20494;-66
2022/12/20 09:26:58;;;;;;;5.75;3.25;;;;;;;24.27;38.45;96506.09;4975360;28;20058;-64
2022/12/20 09:29:24;;;;;;;5.43;3.45;;;;;;;24.19;38.00;96493.38;4951603;28;20031;-62
2022/12/20 09:31:49;;;;;;;6.65;3.80;;;;;;;24.23;37.91;96489.22;4961120;28;20158;-63
2022/12/20 09:34:15;;;;;;;6.32;3.58;;;;;;;24.13;38.27;96482.38;4949736;28;20106;-64
2022/12/20 09:36:40;;;;;;;5.38;3.40;;;;;;;24.56;37.97;96492.34;4957185;28;20046;-62
2022/12/20 09:39:06;;;;;;;6.38;3.17;;;;;;;24.61;38.02;96483.44;4975927;28;20077;-61
2022/12/20 09:41:33;;;;;;;6.93;3.72;;;;;;;24.75;38.01;96488.78;4962460;28;20104;-61
2022/12/20 09:44:00;;;;;;;6.85;3.55;;;;;;;23.97;38.12;96373.75;4937720;28;20438;-61
2022/12/20 09:46:25;;;;;;;5.95;3.10;;;;;;;24.45;38.56;96476.56;4961234;28;20050;-61
2022/12/20 09:48:50;;;;;;;5.15;3.05;;;;;;;24.12;38.60;96472.69;4950815;28;20051;-61
2022/12/20 09:51:42;;;;;;;5.53;3.30;;;;;;;23.82;39.34;96469.84;4966767;28;20432;-61
2022/12/20 09:54:41;;;;;;;6.95;3.67;;;;;;;23.65;39.71;96471.59;4947917;28;20051;-61
2022/12/20 09:57:32;;;;;;;6.47;3.53;;;;;;;24.16;39.12;96478.69;4963301;28;20526;-61
2022/12/20 09:59:58;;;;;;;6.30;3.20;;;;;;;24.21;39.10;96458.88;4965007;28;20035;-61
2022/12/20 10:02:25;;;;;;;6.63;3.08;;;;;;;23.63;38.79;96367.66;4972416;28;20041;-61
2022/12/20 10:04:51;;;;;;;5.93;3.67;;;;;;;23.97;38.96;96460.34;4974938;28;20570;-61
2022/12/20 10:07:20;;;;;;;5.00;3.38;;;;;;;23.97;38.93;96439.25;4945239;28;20059;-61
2022/12/20 10:09:55;;;;;;;7.72;3.55;;;;;;;23.76;39.02;96441.72;4968600;28;20138;-60
2022/12/20 10:12:46;;;;;;;6.00;3.33;;;;;;;23.72;39.32;96435.72;4972958;28;20048;-60
2022/12/20 10:15:37;;;;;;;4.93;3.30;;;;;;;23.93;38.93;96427.81;4954777;28;20502;-61
2022/12/20 10:18:05;;;;;;;3.92;2.97;;;;;;;23.06;39.08;96306.75;4975695;28;20053;-61
2022/12/20 10:20:49;;;;;;;6.30;3.20;;;;;;;23.64;39.31;96388.28;4974396;28;20030;-61
2022/12/20 10:23:31;;;;;;;6.07;3.53;;;;;;;23.74;38.99;96381.47;4966428;28;20141;-61
2022/12/20 10:25:57;;;;;;;4.25;3.22;;;;;;;23.76;39.17;96384.44;4968282;28;20947;-60
2022/12/20 10:28:27;;;;;;;5.22;3.38;;;;;;;23.84;39.38;96390.97;4999432;28;20403;-62
2022/12/20 10:30:52;;;;;;;5.38;3.28;;;;;;;23.55;39.01;96348.22;5007319;28;20085;-62
2022/12/20 10:33:21;;;;;;;5.85;3.40;;;;;;;23.68;39.20;96367.00;5009592;28;20397;-61
2022/12/20 10:35:47;;;;;;;4.55;3.42;;;;;;;23.72;38.97;96367.53;4994477;28;20060;-61
2022/12/20 10:38:16;;;;;;;7.75;3.75;;;;;;;23.65;39.13;96349.63;4991318;28;20763;-61
2022/12/20 10:40:41;;;;;;;5.15;3.10;;;;;;;23.67;38.92;96360.03;4986273;28;20709;-61
2022/12/20 10:43:14;;;;;;;4.93;3.25;;;;;;;23.44;39.38;96336.44;4990532;28;20117;-61
2022/12/20 10:45:39;;;;;;;5.28;3.35;;;;;;;23.50;39.29;96329.09;5003966;28;20176;-61
2022/12/20 10:48:21;;;;;;;6.30;3.67;;;;;;;23.59;39.18;96348.78;4986241;28;20042;-61
2022/12/20 10:51:14;;;;;;;4.78;3.60;;;;;;;23.66;38.76;96342.16;4988357;28;20089;-61
2022/12/20 10:54:00;;;;;;;4.43;3.10;;;;;;;23.57;39.11;96334.09;4994751;28;20049;-61
2022/12/20 10:56:33;;;;;;;5.60;3.67;;;;;;;23.37;39.38;96309.59;4984435;28;20103;-61
2022/12/20 10:59:14;;;;;;;5.20;3.45;;;;;;;23.45;39.69;96332.47;4987329;28;20091;-61
2022/12/20 11:01:41;;;;;;;4.30;3.00;;;;;;;23.35;39.62;96333.84;4979379;28;20042;-61
2022/12/20 11:04:34;;;;;;;4.32;3.17;;;;;;;23.36;39.26;96340.78;4968317;28;20038;-63
2022/12/20 11:07:00;;;;;;;4.10;3.20;;;;;;;23.38;39.69;96327.44;4959830;28;20070;-60
2022/12/20 11:09:30;;;;;;;4.65;3.20;;;;;;;23.40;39.57;96322.25;4986752;28;20038;-60
2022/12/20 11:12:01;;;;;;;6.20;3.50;;;;;;;23.42;39.54;96317.06;5000192;28;20080;-60
2022/12/20 11:14:26;;;;;;;5.30;3.50;;;;;;;23.37;39.63;96314.31;5010051;28;20033;-61
2022/12/20 11:16:53;;;;;;;4.85;3.45;;;;;;;22.53;39.46;96187.63;4992688;28;20446;-61
2022/12/20 11:19:52;;;;;;;4.97;3.50;;;;;;;23.42;38.90;96317.06;4996886;28;20423;-61
2022/12/20 11:22:50;;;;;;;5.65;3.50;;;;;;;23.44;39.09;96309.19;4997377;28;20050;-61
2022/12/20 11:25:47;;;;;;;4.88;3.38;;;;;;;23.38;39.23;96305.66;4962031;28;20066;-61
2022/12/20 11:28:31;;;;;;;5.20;3.55;;;;;;;23.46;39.23;96295.81;4973593;28;20058;-61
2022/12/20 11:31:24;;;;;;;4.20;3.10;;;;;;;23.52;39.01;96302.06;4976530;28;20554;-61
2022/12/20 11:34:17;;;;;;;4.70;3.15;;;;;;;22.79;38.83;96183.75;4990626;28;20050;-61
2022/12/20 11:36:55;;;;;;;5.07;3.20;;;;;;;22.81;39.13;96180.56;4995750;28;20652;-61
2022/12/20 11:39:56;;;;;;;5.65;3.50;;;;;;;23.19;39.06;96232.81;4986342;28;20700;-61
2022/12/20 11:42:50;;;;;;;4.20;3.10;;;;;;;23.54;39.00;96283.25;4984761;28;20108;-60
2022/12/20 11:45:18;;;;;;;4.28;3.10;;;;;;;23.55;38.93;96271.13;4987665;28;20060;-61